Svitzer Swift — VJN4314 — position and weather

sailwx.info

Track history (hours):
 
Tides and Currents Weather Stations Pressure Air Temp Water Temp Dewpoint Dewpoint Depression Visibility Wind Speed Wind Dir Waves Ship Positions

Svitzer Swift

Last reported at 2018-Feb-22 07:07 UTC. Time now 2018-Feb-24 02:22 UTC.
Position S 27°44' E 153°41'.

Length 30 m; draft 4.9 m.

Type: Tug. MMSI: 503783000.

Date/timePositionNaut miles runAvg speedWind from/ knotsBaromVisibWave heightAir tempDewpointWater temp
2018-Feb-22 07:07S 27°44' E 153°41'1 8.8
2018-Feb-22 06:59S 27°45' E 153°41'8 8.5
2018-Feb-22 06:06S 27°53' E 153°41'1 8.3
2018-Feb-22 05:58S 27°54' E 153°41'4 7.8
2018-Feb-22 05:30S 27°57' E 153°41'4 7.9
2018-Feb-22 04:59S 28°01' E 153°41'4 8.3
2018-Feb-22 04:30S 28°05' E 153°41'4 8.6
2018-Feb-22 04:00S 28°10' E 153°41'4 8.6
2018-Feb-22 03:30S 28°14' E 153°41'5 9.2
2018-Feb-22 03:00S 28°19' E 153°41'5 9.8
2018-Feb-22 02:29S 28°24' E 153°41'5 9.9
2018-Feb-22 01:59S 28°29' E 153°41'24910.2
2018-Feb-21 01:31S 32°31' E 152°33'0 9.1
2018-Feb-21 01:30S 32°31' E 152°33'5 9.7
2018-Feb-21 01:00S 32°34' E 152°29'5 9.8
2018-Feb-21 00:30S 32°38' E 152°25'5 9.8
2018-Feb-21 00:00S 32°42' E 152°21'5 9.8
2018-Feb-20 23:30S 32°45' E 152°17'4 8.9
2018-Feb-20 23:00S 32°47' E 152°12'4 8.9
2018-Feb-20 22:30S 32°49' E 152°08'5 9.5
2018-Feb-20 22:00S 32°50' E 152°02'510.3
2018-Feb-20 21:30S 32°52' E 151°56'5 9.9
2018-Feb-20 21:00S 32°53' E 151°51'4 8.1
2018-Feb-20 20:30S 32°55' E 151°47'1 0.0
2018-Feb-20 05:47S 32°55' E 151°46'1 0.0
2018-Feb-19 04:52S 32°55' E 151°46'0 0.0
2018-Feb-19 04:22S 32°55' E 151°46'0 0.0
2018-Feb-19 00:49S 32°55' E 151°46'0 0.0
2018-Feb-18 21:58S 32°55' E 151°46'1 0.7
2018-Feb-18 21:12S 32°55' E 151°47'0 0.5
2018-Feb-18 20:15S 32°55' E 151°47'0 0.2
2018-Feb-18 19:28S 32°55' E 151°46'0 0.0
2018-Feb-18 18:58S 32°55' E 151°46'0 0.0
2018-Feb-18 18:25S 32°55' E 151°46'0 0.0
2018-Feb-18 17:04S 32°55' E 151°46'0 0.1
2018-Feb-18 15:27S 32°55' E 151°46'2 3.9
2018-Feb-18 14:58S 32°53' E 151°46'2 2.2
2018-Feb-18 14:04S 32°55' E 151°48'0 3.3
2018-Feb-18 13:56S 32°55' E 151°48'0 0.7
2018-Feb-18 13:22S 32°55' E 151°47'0 0.9
2018-Feb-18 12:59S 32°55' E 151°47'0 0.1
2018-Feb-18 08:44S 32°55' E 151°46'0 0.0
2018-Feb-18 08:20S 32°55' E 151°46'0 0.0
2018-Feb-18 07:50S 32°55' E 151°46'0 0.0
2018-Feb-18 07:29S 32°55' E 151°46'0 0.0
2018-Feb-18 06:56S 32°55' E 151°46'0 0.0
2018-Feb-18 06:28S 32°55' E 151°46'0 0.4
2018-Feb-18 06:00S 32°55' E 151°47'2 2.3
2018-Feb-18 05:19S 32°54' E 151°46'1 3.0
2018-Feb-18 05:00S 32°55' E 151°46'1 1.5
2018-Feb-18 04:21S 32°55' E 151°47'1 1.7
2018-Feb-18 04:00S 32°55' E 151°46'0 0.2
2018-Feb-18 03:18S 32°55' E 151°46'0 0.7
2018-Feb-18 03:00S 32°55' E 151°46'0 0.0
2018-Feb-18 02:30S 32°55' E 151°46'0 0.0
2018-Feb-18 02:00S 32°55' E 151°46'0 0.0
2018-Feb-18 00:15S 32°55' E 151°46'0 0.9
2018-Feb-17 23:51S 32°55' E 151°47'0 0.9
2018-Feb-17 23:30S 32°55' E 151°46'0 0.0
2018-Feb-17 21:13S 32°55' E 151°46'2 1.7
2018-Feb-17 20:09S 32°53' E 151°46'0 3.1
2018-Feb-17 20:00S 32°54' E 151°46'2 3.2
2018-Feb-17 19:25S 32°55' E 151°48'2 0.4
2018-Feb-17 14:13S 32°54' E 151°46'2 2.0
2018-Feb-17 13:15S 32°55' E 151°48'1 1.7
2018-Feb-17 12:47S 32°55' E 151°47'1 0.3
2018-Feb-17 11:03S 32°55' E 151°47'1 1.8
2018-Feb-17 10:42S 32°55' E 151°47'1 1.2
2018-Feb-17 09:31S 32°54' E 151°46'1 9.6
2018-Feb-17 09:25S 32°55' E 151°47'0 0.5
2018-Feb-17 08:55S 32°55' E 151°46'2 1.3
2018-Feb-17 07:36S 32°54' E 151°46'1 4.0
2018-Feb-17 07:17S 32°55' E 151°46'2 5.8
2018-Feb-17 06:54S 32°55' E 151°49'1 1.0
2018-Feb-17 06:20S 32°55' E 151°48'2 4.5
2018-Feb-17 05:58S 32°55' E 151°46'2 1.7
2018-Feb-17 04:55S 32°53' E 151°46'2 4.1
2018-Feb-17 04:24S 32°55' E 151°46'0 0.0
2018-Feb-17 03:57S 32°55' E 151°46'0 0.0
2018-Feb-17 03:09S 32°55' E 151°46'0 0.0
2018-Feb-17 02:57S 32°55' E 151°46'0 0.0
2018-Feb-17 01:33S 32°55' E 151°46'0 0.0
2018-Feb-17 01:27S 32°55' E 151°46'0 0.0
2018-Feb-16 23:42S 32°55' E 151°46'0 0.0
2018-Feb-16 20:39S 32°55' E 151°46'0 0.0
2018-Feb-16 09:15S 32°55' E 151°46'0 0.0
2018-Feb-16 04:45S 32°55' E 151°46'0 0.0
2018-Feb-16 04:21S 32°55' E 151°46'0 0.0
2018-Feb-16 03:45S 32°55' E 151°46'0 0.0
2018-Feb-16 03:21S 32°55' E 151°46'0 0.0
2018-Feb-16 02:51S 32°55' E 151°46'0 0.0
2018-Feb-16 02:21S 32°55' E 151°46'0 0.0
2018-Feb-16 01:57S 32°55' E 151°46'0 0.0
2018-Feb-16 01:30S 32°55' E 151°46'0 0.0
2018-Feb-16 00:03S 32°55' E 151°46'0 0.0
2018-Feb-15 23:51S 32°55' E 151°46'0 0.0
2018-Feb-15 23:30S 32°55' E 151°46'0 0.0
2018-Feb-15 22:57S 32°55' E 151°46'0 0.0
2018-Feb-15 22:27S 32°55' E 151°46'0 0.0
2018-Feb-15 21:57S 32°55' E 151°46'0 0.0
2018-Feb-15 21:21S 32°55' E 151°46'0 0.0
2018-Feb-15 20:57S 32°55' E 151°46'0 0.0
2018-Feb-15 20:30S 32°55' E 151°46'0 0.0
2018-Feb-15 20:00S 32°55' E 151°46'0 0.0
2018-Feb-15 19:30S 32°55' E 151°46'0 0.0
2018-Feb-15 18:57S 32°55' E 151°46'0 0.0
2018-Feb-15 18:27S 32°55' E 151°46'0 0.0
2018-Feb-15 17:51S 32°55' E 151°46'0 0.0
2018-Feb-15 16:39S 32°55' E 151°46'0 0.0
2018-Feb-15 15:36S 32°55' E 151°46'0 0.0
2018-Feb-15 15:12S 32°55' E 151°46'0 0.0
2018-Feb-14 13:21S 32°55' E 151°46'0 0.0
2018-Feb-14 12:51S 32°55' E 151°46'0 0.0
2018-Feb-14 12:30S 32°55' E 151°46'0 0.0
2018-Feb-14 12:00S 32°55' E 151°46'0 0.0
2018-Feb-14 11:30S 32°55' E 151°46'0 0.0
2018-Feb-14 11:00S 32°55' E 151°46'0 0.0
2018-Feb-14 10:30S 32°55' E 151°46'0 0.0
2018-Feb-14 09:59S 32°55' E 151°46'0 0.0
2018-Feb-14 09:30S 32°55' E 151°46'0 0.0
2018-Feb-14 08:57S 32°55' E 151°46'0 0.0
2018-Feb-14 08:26S 32°55' E 151°46'0 0.0
2018-Feb-14 07:56S 32°55' E 151°46'0 0.0
2018-Feb-14 07:29S 32°55' E 151°46'0 0.0
2018-Feb-14 06:51S 32°55' E 151°46'0 0.0
2018-Feb-14 06:29S 32°55' E 151°46'0 0.0
2018-Feb-14 06:00S 32°55' E 151°46'0 0.0
2018-Feb-14 05:29S 32°55' E 151°46'0 0.0
2018-Feb-14 05:00S 32°55' E 151°46'0 0.0
2018-Feb-14 04:30S 32°55' E 151°46'0 0.0
2018-Feb-14 04:00S 32°55' E 151°46'0 0.0
2018-Feb-14 03:29S 32°55' E 151°46'0 0.0
2018-Feb-14 02:59S 32°55' E 151°46'0 0.0
2018-Feb-14 02:29S 32°55' E 151°46'0 0.0
2018-Feb-14 01:59S 32°55' E 151°46'0 0.0
2018-Feb-14 01:14S 32°55' E 151°46'0 0.0
2018-Feb-13 21:14S 32°55' E 151°46'0 0.0
2018-Feb-13 13:11S 32°55' E 151°46'0 0.0
2018-Feb-12 23:14S 32°55' E 151°46'0 0.0
2018-Feb-12 22:44S 32°55' E 151°46'0 0.0
2018-Feb-12 22:29S 32°55' E 151°46'0 0.0
2018-Feb-12 21:56S 32°55' E 151°46'0 0.0
2018-Feb-12 21:29S 32°55' E 151°46'0 0.0
2018-Feb-12 20:59S 32°55' E 151°46'0 0.0
2018-Feb-12 20:29S 32°55' E 151°46'0 0.0
2018-Feb-12 16:35S 32°55' E 151°46'0 0.0
2018-Feb-12 16:26S 32°55' E 151°46'  
Track history (hours):
 
Tides and Currents Weather Stations Pressure Air Temp Water Temp Dewpoint Dewpoint Depression Visibility Wind Speed Wind Dir Waves Ship Positions

Svitzer Swift

Last reported at 2018-Feb-22 07:07 UTC. Time now 2018-Feb-24 02:22 UTC.
Position S 27°44' E 153°41'.

Length 30 m; draft 4.9 m.

Type: Tug. MMSI: 503783000.

Date/timePositionNaut miles runAvg speedWind from/ knotsBaromVisibWave heightAir tempDewpointWater temp
2018-Feb-22 07:07S 27°44' E 153°41'1 8.8
2018-Feb-22 06:59S 27°45' E 153°41'8 8.5
2018-Feb-22 06:06S 27°53' E 153°41'1 8.3
2018-Feb-22 05:58S 27°54' E 153°41'4 7.8
2018-Feb-22 05:30S 27°57' E 153°41'4 7.9
2018-Feb-22 04:59S 28°01' E 153°41'4 8.3
2018-Feb-22 04:30S 28°05' E 153°41'4 8.6
2018-Feb-22 04:00S 28°10' E 153°41'4 8.6
2018-Feb-22 03:30S 28°14' E 153°41'5 9.2
2018-Feb-22 03:00S 28°19' E 153°41'5 9.8
2018-Feb-22 02:29S 28°24' E 153°41'5 9.9
2018-Feb-22 01:59S 28°29' E 153°41'24910.2
2018-Feb-21 01:31S 32°31' E 152°33'0 9.1
2018-Feb-21 01:30S 32°31' E 152°33'5 9.7
2018-Feb-21 01:00S 32°34' E 152°29'5 9.8
2018-Feb-21 00:30S 32°38' E 152°25'5 9.8
2018-Feb-21 00:00S 32°42' E 152°21'5 9.8
2018-Feb-20 23:30S 32°45' E 152°17'4 8.9
2018-Feb-20 23:00S 32°47' E 152°12'4 8.9
2018-Feb-20 22:30S 32°49' E 152°08'5 9.5
2018-Feb-20 22:00S 32°50' E 152°02'510.3
2018-Feb-20 21:30S 32°52' E 151°56'5 9.9
2018-Feb-20 21:00S 32°53' E 151°51'4 8.1
2018-Feb-20 20:30S 32°55' E 151°47'1 0.0
2018-Feb-20 05:47S 32°55' E 151°46'1 0.0
2018-Feb-19 04:52S 32°55' E 151°46'0 0.0
2018-Feb-19 04:22S 32°55' E 151°46'0 0.0
2018-Feb-19 00:49S 32°55' E 151°46'0 0.0
2018-Feb-18 21:58S 32°55' E 151°46'1 0.7
2018-Feb-18 21:12S 32°55' E 151°47'0 0.5
2018-Feb-18 20:15S 32°55' E 151°47'0 0.2
2018-Feb-18 19:28S 32°55' E 151°46'0 0.0
2018-Feb-18 18:58S 32°55' E 151°46'0 0.0
2018-Feb-18 18:25S 32°55' E 151°46'0 0.0
2018-Feb-18 17:04S 32°55' E 151°46'0 0.1
2018-Feb-18 15:27S 32°55' E 151°46'2 3.9
2018-Feb-18 14:58S 32°53' E 151°46'2 2.2
2018-Feb-18 14:04S 32°55' E 151°48'0 3.3
2018-Feb-18 13:56S 32°55' E 151°48'0 0.7
2018-Feb-18 13:22S 32°55' E 151°47'0 0.9
2018-Feb-18 12:59S 32°55' E 151°47'0 0.1
2018-Feb-18 08:44S 32°55' E 151°46'0 0.0
2018-Feb-18 08:20S 32°55' E 151°46'0 0.0
2018-Feb-18 07:50S 32°55' E 151°46'0 0.0
2018-Feb-18 07:29S 32°55' E 151°46'0 0.0
2018-Feb-18 06:56S 32°55' E 151°46'0 0.0
2018-Feb-18 06:28S 32°55' E 151°46'0 0.4
2018-Feb-18 06:00S 32°55' E 151°47'2 2.3
2018-Feb-18 05:19S 32°54' E 151°46'1 3.0
2018-Feb-18 05:00S 32°55' E 151°46'1 1.5
2018-Feb-18 04:21S 32°55' E 151°47'1 1.7
2018-Feb-18 04:00S 32°55' E 151°46'0 0.2
2018-Feb-18 03:18S 32°55' E 151°46'0 0.7
2018-Feb-18 03:00S 32°55' E 151°46'0 0.0
2018-Feb-18 02:30S 32°55' E 151°46'0 0.0
2018-Feb-18 02:00S 32°55' E 151°46'0 0.0
2018-Feb-18 00:15S 32°55' E 151°46'0 0.9
2018-Feb-17 23:51S 32°55' E 151°47'0 0.9
2018-Feb-17 23:30S 32°55' E 151°46'0 0.0
2018-Feb-17 21:13S 32°55' E 151°46'2 1.7
2018-Feb-17 20:09S 32°53' E 151°46'0 3.1
2018-Feb-17 20:00S 32°54' E 151°46'2 3.2
2018-Feb-17 19:25S 32°55' E 151°48'2 0.4
2018-Feb-17 14:13S 32°54' E 151°46'2 2.0
2018-Feb-17 13:15S 32°55' E 151°48'1 1.7
2018-Feb-17 12:47S 32°55' E 151°47'1 0.3
2018-Feb-17 11:03S 32°55' E 151°47'1 1.8
2018-Feb-17 10:42S 32°55' E 151°47'1 1.2
2018-Feb-17 09:31S 32°54' E 151°46'1 9.6
2018-Feb-17 09:25S 32°55' E 151°47'0 0.5
2018-Feb-17 08:55S 32°55' E 151°46'2 1.3
2018-Feb-17 07:36S 32°54' E 151°46'1 4.0
2018-Feb-17 07:17S 32°55' E 151°46'2 5.8
2018-Feb-17 06:54S 32°55' E 151°49'1 1.0
2018-Feb-17 06:20S 32°55' E 151°48'2 4.5
2018-Feb-17 05:58S 32°55' E 151°46'2 1.7
2018-Feb-17 04:55S 32°53' E 151°46'2 4.1
2018-Feb-17 04:24S 32°55' E 151°46'0 0.0
2018-Feb-17 03:57S 32°55' E 151°46'0 0.0
2018-Feb-17 03:09S 32°55' E 151°46'0 0.0
2018-Feb-17 02:57S 32°55' E 151°46'0 0.0
2018-Feb-17 01:33S 32°55' E 151°46'0 0.0
2018-Feb-17 01:27S 32°55' E 151°46'0 0.0
2018-Feb-16 23:42S 32°55' E 151°46'0 0.0
2018-Feb-16 20:39S 32°55' E 151°46'0 0.0
2018-Feb-16 09:15S 32°55' E 151°46'0 0.0
2018-Feb-16 04:45S 32°55' E 151°46'0 0.0
2018-Feb-16 04:21S 32°55' E 151°46'0 0.0
2018-Feb-16 03:45S 32°55' E 151°46'0 0.0
2018-Feb-16 03:21S 32°55' E 151°46'0 0.0
2018-Feb-16 02:51S 32°55' E 151°46'0 0.0
2018-Feb-16 02:21S 32°55' E 151°46'0 0.0
2018-Feb-16 01:57S 32°55' E 151°46'0 0.0
2018-Feb-16 01:30S 32°55' E 151°46'0 0.0
2018-Feb-16 00:03S 32°55' E 151°46'0 0.0
2018-Feb-15 23:51S 32°55' E 151°46'0 0.0
2018-Feb-15 23:30S 32°55' E 151°46'0 0.0
2018-Feb-15 22:57S 32°55' E 151°46'0 0.0
2018-Feb-15 22:27S 32°55' E 151°46'0 0.0
2018-Feb-15 21:57S 32°55' E 151°46'0 0.0
2018-Feb-15 21:21S 32°55' E 151°46'0 0.0
2018-Feb-15 20:57S 32°55' E 151°46'0 0.0
2018-Feb-15 20:30S 32°55' E 151°46'0 0.0
2018-Feb-15 20:00S 32°55' E 151°46'0 0.0
2018-Feb-15 19:30S 32°55' E 151°46'0 0.0
2018-Feb-15 18:57S 32°55' E 151°46'0 0.0
2018-Feb-15 18:27S 32°55' E 151°46'0 0.0
2018-Feb-15 17:51S 32°55' E 151°46'0 0.0
2018-Feb-15 16:39S 32°55' E 151°46'0 0.0
2018-Feb-15 15:36S 32°55' E 151°46'0 0.0
2018-Feb-15 15:12S 32°55' E 151°46'0 0.0
2018-Feb-14 13:21S 32°55' E 151°46'0 0.0
2018-Feb-14 12:51S 32°55' E 151°46'0 0.0
2018-Feb-14 12:30S 32°55' E 151°46'0 0.0
2018-Feb-14 12:00S 32°55' E 151°46'0 0.0
2018-Feb-14 11:30S 32°55' E 151°46'0 0.0
2018-Feb-14 11:00S 32°55' E 151°46'0 0.0
2018-Feb-14 10:30S 32°55' E 151°46'0 0.0
2018-Feb-14 09:59S 32°55' E 151°46'0 0.0
2018-Feb-14 09:30S 32°55' E 151°46'0 0.0
2018-Feb-14 08:57S 32°55' E 151°46'0 0.0
2018-Feb-14 08:26S 32°55' E 151°46'0 0.0
2018-Feb-14 07:56S 32°55' E 151°46'0 0.0
2018-Feb-14 07:29S 32°55' E 151°46'0 0.0
2018-Feb-14 06:51S 32°55' E 151°46'0 0.0
2018-Feb-14 06:29S 32°55' E 151°46'0 0.0
2018-Feb-14 06:00S 32°55' E 151°46'0 0.0
2018-Feb-14 05:29S 32°55' E 151°46'0 0.0
2018-Feb-14 05:00S 32°55' E 151°46'0 0.0
2018-Feb-14 04:30S 32°55' E 151°46'0 0.0
2018-Feb-14 04:00S 32°55' E 151°46'0 0.0
2018-Feb-14 03:29S 32°55' E 151°46'0 0.0
2018-Feb-14 02:59S 32°55' E 151°46'0 0.0
2018-Feb-14 02:29S 32°55' E 151°46'0 0.0
2018-Feb-14 01:59S 32°55' E 151°46'0 0.0
2018-Feb-14 01:14S 32°55' E 151°46'0 0.0
2018-Feb-13 21:14S 32°55' E 151°46'0 0.0
2018-Feb-13 13:11S 32°55' E 151°46'0 0.0
2018-Feb-12 23:14S 32°55' E 151°46'0 0.0
2018-Feb-12 22:44S 32°55' E 151°46'0 0.0
2018-Feb-12 22:29S 32°55' E 151°46'0 0.0
2018-Feb-12 21:56S 32°55' E 151°46'0 0.0
2018-Feb-12 21:29S 32°55' E 151°46'0 0.0
2018-Feb-12 20:59S 32°55' E 151°46'0 0.0
2018-Feb-12 20:29S 32°55' E 151°46'0 0.0
2018-Feb-12 16:35S 32°55' E 151°46'0 0.0
2018-Feb-12 16:26S 32°55' E 151°46'  

Dump ship's entire track history